createdAt,value
2018-03-30T00:01:59.221Z,-0.25
2018-03-30T00:04:28.245Z,-0.30
2018-03-30T00:06:56.939Z,-0.41
2018-03-30T00:12:37.690Z,-0.46
2018-03-30T00:15:06.700Z,-0.41
2018-03-30T00:17:34.947Z,-0.47
2018-03-30T00:20:03.972Z,-0.50
2018-03-30T00:22:32.228Z,-0.57
2018-03-30T00:25:01.240Z,-0.62
2018-03-30T00:27:29.518Z,-0.67
2018-03-30T00:29:58.534Z,-0.71
2018-03-30T00:32:26.777Z,-0.75
2018-03-30T00:34:55.808Z,-0.51
2018-03-30T00:37:24.076Z,-0.70
2018-03-30T00:39:52.379Z,-0.87
2018-03-30T00:42:20.574Z,-0.95
2018-03-30T00:44:50.087Z,-0.99
2018-03-30T00:47:18.336Z,-1.01
2018-03-30T00:49:46.579Z,-1.02
2018-03-30T00:52:15.622Z,-1.07
2018-03-30T00:54:43.876Z,-1.06
2018-03-30T00:57:12.905Z,-0.78
2018-03-30T00:59:41.147Z,-1.06
2018-03-30T01:02:09.404Z,-1.02
2018-03-30T01:04:37.664Z,-0.77
2018-03-30T01:07:05.918Z,-0.89
2018-03-30T01:09:34.176Z,-0.89
2018-03-30T01:12:02.442Z,-0.82
2018-03-30T01:14:31.468Z,-0.87
2018-03-30T01:16:59.748Z,-0.86
2018-03-30T01:19:28.216Z,-0.88
2018-03-30T01:21:56.469Z,-0.90
2018-03-30T01:24:24.716Z,-0.78
2018-03-30T01:26:53.028Z,-0.46
2018-03-30T01:29:21.289Z,-0.53
2018-03-30T01:31:49.548Z,-0.45
2018-03-30T01:34:17.809Z,-0.44
2018-03-30T01:36:46.305Z,-0.41
2018-03-30T01:39:14.560Z,-0.40
2018-03-30T01:41:43.572Z,-0.37
2018-03-30T01:44:11.820Z,-0.35
2018-03-30T01:46:40.853Z,-0.32
2018-03-30T01:49:09.106Z,-0.24
2018-03-30T01:51:38.115Z,-0.17
2018-03-30T01:54:06.381Z,-0.11
2018-03-30T01:56:35.404Z,-0.06
2018-03-30T01:59:04.462Z,0.00
2018-03-30T02:01:32.670Z,0.04
2018-03-30T02:04:01.692Z,0.05
2018-03-30T02:06:29.954Z,0.57
2018-03-30T02:08:58.201Z,0.27
2018-03-30T02:11:26.439Z,0.20
2018-03-30T02:13:54.702Z,0.19
2018-03-30T02:16:22.956Z,0.24
2018-03-30T02:18:51.984Z,0.48
2018-03-30T02:21:20.233Z,0.29
2018-03-30T02:23:49.460Z,0.30
2018-03-30T02:26:17.707Z,0.31
2018-03-30T02:28:45.953Z,0.29
2018-03-30T02:31:14.202Z,0.25
2018-03-30T02:33:42.443Z,0.29
2018-03-30T02:36:10.797Z,0.32
2018-03-30T02:38:39.040Z,0.24
2018-03-30T02:41:07.325Z,0.28
2018-03-30T02:43:35.580Z,0.29
2018-03-30T02:46:04.610Z,0.33
2018-03-30T02:48:32.845Z,0.36
2018-03-30T02:51:01.105Z,0.41
2018-03-30T02:53:29.347Z,0.86
2018-03-30T02:55:57.586Z,0.85
2018-03-30T02:58:25.839Z,0.80
2018-03-30T03:00:54.091Z,0.63
2018-03-30T03:03:22.332Z,0.71
2018-03-30T03:05:51.349Z,0.77
2018-03-30T03:08:20.365Z,0.75
2018-03-30T03:10:48.621Z,0.51
2018-03-30T03:13:17.634Z,0.57
2018-03-30T03:15:45.877Z,0.62
2018-03-30T03:18:14.132Z,0.75
2018-03-30T03:20:42.385Z,0.53
2018-03-30T03:23:10.640Z,0.49
2018-03-30T03:25:39.659Z,0.50
2018-03-30T03:28:07.911Z,0.57
2018-03-30T03:30:36.912Z,0.68
2018-03-30T03:33:06.012Z,0.71
2018-03-30T03:35:35.020Z,0.81
2018-03-30T03:38:03.269Z,0.90
2018-03-30T03:40:31.517Z,0.89
2018-03-30T03:42:59.772Z,0.86
2018-03-30T03:45:28.016Z,0.84
2018-03-30T03:47:57.032Z,0.80
2018-03-30T03:50:26.034Z,0.78
2018-03-30T03:52:54.300Z,0.78
2018-03-30T03:55:23.304Z,0.81
2018-03-30T03:57:52.328Z,0.91
2018-03-30T04:00:20.578Z,1.02
2018-03-30T04:02:49.581Z,1.02
2018-03-30T04:05:18.588Z,1.15
2018-03-30T04:07:46.837Z,1.13
2018-03-30T04:10:15.084Z,1.09
2018-03-30T04:12:43.332Z,1.13
2018-03-30T04:15:11.590Z,1.13
2018-03-30T04:17:40.593Z,1.10
2018-03-30T04:20:09.612Z,1.13
2018-03-30T04:22:37.865Z,1.16
2018-03-30T04:25:06.876Z,1.33
2018-03-30T04:27:35.120Z,1.66
2018-03-30T04:30:03.372Z,1.61
2018-03-30T04:32:31.623Z,1.39
2018-03-30T04:34:59.866Z,1.31
2018-03-30T04:37:28.126Z,1.45
2018-03-30T04:39:56.364Z,1.75
2018-03-30T04:42:24.608Z,1.66
2018-03-30T04:44:52.872Z,1.43
2018-03-30T04:47:21.116Z,1.37
2018-03-30T04:49:49.358Z,1.50
2018-03-30T04:52:18.386Z,1.80
2018-03-30T04:54:46.641Z,1.80
2018-03-30T04:57:15.645Z,1.47
2018-03-30T04:59:44.668Z,1.34
2018-03-30T05:02:12.902Z,1.23
2018-03-30T05:04:41.136Z,1.14
2018-03-30T05:07:09.389Z,1.09
2018-03-30T05:09:37.664Z,1.07
2018-03-30T05:12:06.673Z,1.03
2018-03-30T05:14:34.948Z,1.10
2018-03-30T05:17:03.960Z,1.17
2018-03-30T05:19:32.195Z,1.74
2018-03-30T05:22:00.496Z,1.82
2018-03-30T05:24:28.687Z,1.85
2018-03-30T05:26:56.943Z,1.76
2018-03-30T05:29:25.397Z,1.79
2018-03-30T05:31:53.605Z,1.72
2018-03-30T05:34:22.628Z,1.73
2018-03-30T05:36:50.892Z,1.76
2018-03-30T05:39:19.900Z,1.77
2018-03-30T05:41:48.153Z,1.91
2018-03-30T05:44:17.309Z,2.04
2018-03-30T05:46:45.563Z,2.17
2018-03-30T05:49:14.569Z,2.25
2018-03-30T05:51:42.836Z,2.35
2018-03-30T05:54:11.850Z,2.56
2018-03-30T05:56:40.106Z,2.69
2018-03-30T05:59:09.133Z,2.72
2018-03-30T06:01:37.363Z,2.94
2018-03-30T06:04:05.613Z,2.74
2018-03-30T06:06:33.852Z,2.64
2018-03-30T06:09:02.891Z,2.56
2018-03-30T06:11:31.141Z,2.49
2018-03-30T06:13:59.388Z,2.42
2018-03-30T06:16:27.642Z,2.43
2018-03-30T06:18:55.882Z,2.63
2018-03-30T06:21:24.136Z,2.91
2018-03-30T06:23:53.160Z,2.94
2018-03-30T06:26:21.400Z,3.03
2018-03-30T06:28:49.644Z,3.40
2018-03-30T06:31:17.907Z,3.76
2018-03-30T06:33:46.160Z,4.36
2018-03-30T06:36:15.208Z,4.60
2018-03-30T06:38:43.437Z,5.04
2018-03-30T06:41:12.446Z,7.51
2018-03-30T06:43:41.451Z,8.71
2018-03-30T06:46:09.725Z,13.65
2018-03-30T06:48:38.728Z,18.01
2018-03-30T06:51:06.967Z,14.15
2018-03-30T06:53:35.235Z,13.68
2018-03-30T06:56:03.476Z,16.84
2018-03-30T06:58:31.732Z,15.85
2018-03-30T07:01:00.755Z,12.41
2018-03-30T07:03:28.996Z,10.24
2018-03-30T07:05:58.012Z,8.41
2018-03-30T07:08:27.027Z,7.92
2018-03-30T07:10:55.277Z,7.24
2018-03-30T07:13:24.301Z,6.59
2018-03-30T07:15:52.540Z,6.52
2018-03-30T07:18:20.792Z,6.59
2018-03-30T07:20:49.040Z,6.36
2018-03-30T07:23:17.327Z,6.89
2018-03-30T07:25:45.564Z,7.19
2018-03-30T07:28:14.076Z,7.14
2018-03-30T07:30:43.079Z,7.11
2018-03-30T07:33:11.324Z,7.12
2018-03-30T07:35:39.576Z,7.65
2018-03-30T07:38:07.812Z,7.80
2018-03-30T07:40:36.828Z,7.85
2018-03-30T07:43:05.074Z,7.61
2018-03-30T07:45:34.304Z,7.83
2018-03-30T07:48:02.560Z,7.99
2018-03-30T07:50:31.575Z,7.96
2018-03-30T07:52:59.848Z,8.26
2018-03-30T07:55:28.861Z,8.84
2018-03-30T07:57:57.120Z,8.92
2018-03-30T08:00:26.125Z,9.02
2018-03-30T08:02:55.143Z,9.23
2018-03-30T08:05:23.379Z,9.27
2018-03-30T08:07:51.619Z,9.42
2018-03-30T08:10:19.872Z,9.63
2018-03-30T08:12:48.115Z,9.57
2018-03-30T08:15:16.360Z,9.76
2018-03-30T08:17:45.851Z,9.96
2018-03-30T08:20:14.097Z,9.93
2018-03-30T08:22:43.116Z,9.58
2018-03-30T08:25:11.401Z,9.33
2018-03-30T08:27:39.652Z,9.01
2018-03-30T08:30:07.925Z,8.83
2018-03-30T08:32:36.221Z,9.04
2018-03-30T08:35:05.253Z,9.23
2018-03-30T08:37:33.506Z,9.13
2018-03-30T08:40:02.517Z,9.05
2018-03-30T08:42:30.769Z,9.10
2018-03-30T08:44:59.779Z,9.21
2018-03-30T08:47:28.803Z,9.58
2018-03-30T08:49:57.046Z,9.60
2018-03-30T08:52:26.052Z,9.63
2018-03-30T08:54:55.076Z,9.53
2018-03-30T08:57:23.327Z,9.65
2018-03-30T08:59:52.355Z,9.71
2018-03-30T09:02:21.422Z,9.83
2018-03-30T09:04:50.441Z,9.87
2018-03-30T09:07:18.680Z,9.89
2018-03-30T09:09:46.920Z,10.01
2018-03-30T09:12:15.172Z,10.12
2018-03-30T09:14:43.425Z,10.20
2018-03-30T09:17:11.680Z,10.18
2018-03-30T09:19:39.927Z,10.21
2018-03-30T09:22:08.180Z,10.09
2018-03-30T09:24:37.198Z,10.07
2018-03-30T09:27:05.444Z,10.27
2018-03-30T09:29:33.700Z,10.34
2018-03-30T09:32:01.955Z,10.83
2018-03-30T09:34:30.197Z,11.69
2018-03-30T09:36:59.231Z,12.23
2018-03-30T09:39:27.467Z,12.49
2018-03-30T09:41:56.499Z,13.12
2018-03-30T09:44:25.708Z,12.85
2018-03-30T09:46:53.959Z,13.06
2018-03-30T09:49:23.020Z,14.06
2018-03-30T09:51:51.285Z,15.36
2018-03-30T09:54:20.985Z,14.92
2018-03-30T09:56:49.253Z,12.85
2018-03-30T09:59:17.504Z,13.11
2018-03-30T10:01:53.220Z,13.77
2018-03-30T10:04:23.417Z,14.55
2018-03-30T10:06:52.416Z,14.92
2018-03-30T10:09:20.682Z,14.14
2018-03-30T10:11:48.966Z,14.64
2018-03-30T10:14:17.190Z,15.60
2018-03-30T10:16:45.440Z,15.89
2018-03-30T10:19:13.706Z,14.77
2018-03-30T10:21:41.963Z,14.57
2018-03-30T10:24:10.989Z,14.19
2018-03-30T10:26:39.247Z,14.40
2018-03-30T10:29:08.268Z,14.09
2018-03-30T10:31:36.528Z,17.25
2018-03-30T10:34:04.796Z,16.41
2018-03-30T10:36:33.811Z,16.23
2018-03-30T10:39:02.074Z,16.10
2018-03-30T10:41:31.108Z,15.29
2018-03-30T10:43:59.360Z,14.85
2018-03-30T10:46:27.665Z,15.27
2018-03-30T10:48:55.963Z,16.86
2018-03-30T10:51:24.235Z,18.33
2018-03-30T10:53:52.497Z,17.20
2018-03-30T10:56:20.770Z,17.78
2018-03-30T10:58:49.079Z,18.29
2018-03-30T11:01:17.334Z,18.48
2018-03-30T11:03:45.584Z,18.98
2018-03-30T11:06:13.851Z,21.80
2018-03-30T11:08:42.122Z,22.27
2018-03-30T11:11:11.609Z,21.03
2018-03-30T11:13:39.868Z,21.12
2018-03-30T11:16:08.123Z,20.82
2018-03-30T11:18:37.133Z,20.37
2018-03-30T11:21:06.160Z,20.42
2018-03-30T11:23:34.408Z,22.33
2018-03-30T11:26:02.737Z,20.64
2018-03-30T11:28:31.726Z,18.79
2018-03-30T11:30:59.990Z,16.75
2018-03-30T11:33:28.223Z,16.78
2018-03-30T11:35:56.472Z,18.53
2018-03-30T11:38:24.734Z,21.61
2018-03-30T11:40:52.987Z,20.66
2018-03-30T11:43:22.009Z,19.15
2018-03-30T11:45:50.273Z,19.94
2018-03-30T11:48:18.523Z,18.54
2018-03-30T11:50:46.796Z,17.55
2018-03-30T11:53:15.054Z,17.61
2018-03-30T11:55:43.305Z,17.95
2018-03-30T11:58:11.570Z,18.40
2018-03-30T12:00:40.668Z,17.60
2018-03-30T12:03:09.688Z,17.55
2018-03-30T12:05:37.960Z,18.19
2018-03-30T12:08:06.355Z,17.60
2018-03-30T12:10:34.608Z,18.54
2018-03-30T12:13:02.864Z,15.47
2018-03-30T12:15:31.138Z,15.35
2018-03-30T12:17:59.409Z,16.55
2018-03-30T12:20:27.656Z,18.31
2018-03-30T12:22:55.912Z,16.73
2018-03-30T12:25:24.182Z,16.78
2018-03-30T12:27:53.209Z,15.49
2018-03-30T12:30:21.467Z,15.90
2018-03-30T12:32:50.483Z,15.51
2018-03-30T12:35:18.747Z,16.03
2018-03-30T12:37:47.781Z,16.28
2018-03-30T12:40:16.028Z,16.15
2018-03-30T12:42:44.296Z,16.08
2018-03-30T12:45:13.324Z,16.53
2018-03-30T12:47:41.599Z,18.03
2018-03-30T12:50:09.847Z,16.72
2018-03-30T12:52:38.862Z,17.27
2018-03-30T12:55:07.875Z,16.55
2018-03-30T12:57:36.160Z,16.45
2018-03-30T13:00:04.392Z,16.62
2018-03-30T13:02:32.659Z,16.16
2018-03-30T13:05:00.913Z,16.06
2018-03-30T13:07:29.170Z,16.92
2018-03-30T13:09:57.435Z,17.73
2018-03-30T13:12:26.464Z,17.72
2018-03-30T13:14:54.714Z,17.49
2018-03-30T13:17:23.749Z,16.59
2018-03-30T13:19:51.993Z,16.65
2018-03-30T13:22:20.257Z,16.41
2018-03-30T13:24:49.296Z,15.71
2018-03-30T13:27:17.544Z,15.48
2018-03-30T13:29:46.561Z,14.80
2018-03-30T13:32:14.828Z,15.20
2018-03-30T13:34:43.850Z,15.01
2018-03-30T13:37:12.093Z,16.24
2018-03-30T13:39:41.124Z,16.51
2018-03-30T13:42:09.376Z,15.59
2018-03-30T13:44:38.404Z,15.82
2018-03-30T13:47:06.690Z,16.38
2018-03-30T13:49:35.679Z,15.48
2018-03-30T13:55:25.834Z,14.81
2018-03-30T13:57:58.780Z,14.77
2018-03-30T14:00:39.212Z,14.72
2018-03-30T14:03:18.680Z,14.81
2018-03-30T14:06:13.254Z,14.72
2018-03-30T14:08:52.157Z,14.59
2018-03-30T14:11:51.572Z,14.80
2018-03-30T14:14:19.832Z,15.29
2018-03-30T14:16:51.365Z,15.11
2018-03-30T14:19:22.928Z,14.25
2018-03-30T14:22:06.480Z,14.13
2018-03-30T14:24:42.592Z,14.48
2018-03-30T14:27:15.221Z,14.61
2018-03-30T14:29:47.244Z,14.95
2018-03-30T14:32:21.697Z,15.00
2018-03-30T14:34:59.933Z,14.99
2018-03-30T14:37:32.552Z,14.71
2018-03-30T14:40:10.936Z,14.83
2018-03-30T14:42:41.841Z,15.13
2018-03-30T14:45:11.950Z,14.94
2018-03-30T14:47:43.374Z,15.05
2018-03-30T14:53:30.697Z,15.10
2018-03-30T14:59:13.613Z,15.21
2018-03-30T15:01:54.693Z,14.56
2018-03-30T15:04:40.556Z,14.36
2018-03-30T15:07:29.712Z,14.09
2018-03-30T15:10:07.996Z,13.95
2018-03-30T15:12:39.592Z,13.96
2018-03-30T15:21:38.376Z,13.97
2018-03-30T15:24:22.402Z,13.87
2018-03-30T15:26:52.135Z,13.93
2018-03-30T15:29:25.755Z,14.05
2018-03-30T15:32:01.031Z,13.93
2018-03-30T15:34:32.636Z,13.91
2018-03-30T15:37:10.103Z,13.86
2018-03-30T15:39:39.128Z,13.91
2018-03-30T15:42:07.396Z,14.03
2018-03-30T15:44:37.802Z,14.00
2018-03-30T15:47:10.536Z,13.99
2018-03-30T15:49:39.543Z,14.07
2018-03-30T15:52:11.528Z,14.01
2018-03-30T15:54:39.779Z,14.08
2018-03-30T15:57:08.064Z,13.92
2018-03-30T15:59:36.315Z,14.08
2018-03-30T16:02:04.607Z,14.07
2018-03-30T16:04:32.920Z,14.16
2018-03-30T16:07:01.206Z,14.07
2018-03-30T16:09:36.825Z,13.99
2018-03-30T16:12:05.198Z,13.84
2018-03-30T16:14:33.512Z,14.05
2018-03-30T16:17:01.799Z,14.27
2018-03-30T16:19:29.268Z,14.37
2018-03-30T16:21:56.769Z,14.48
2018-03-30T16:24:25.030Z,14.23
2018-03-30T16:26:52.501Z,13.98
2018-03-30T16:29:20.728Z,13.96
2018-03-30T16:31:48.232Z,13.87
2018-03-30T16:34:15.721Z,13.83
2018-03-30T16:36:43.984Z,13.80
2018-03-30T16:39:11.505Z,13.48
2018-03-30T16:41:38.970Z,13.43
2018-03-30T16:44:06.436Z,13.46
2018-03-30T16:46:33.900Z,13.27
2018-03-30T16:49:01.427Z,12.94
2018-03-30T16:51:28.940Z,13.03
2018-03-30T16:53:56.407Z,13.00
2018-03-30T16:56:23.879Z,12.77
2018-03-30T16:58:51.386Z,12.78
2018-03-30T17:01:18.869Z,12.74
2018-03-30T17:03:46.357Z,12.57
2018-03-30T17:06:13.875Z,12.52
2018-03-30T17:08:41.381Z,12.35
2018-03-30T17:11:08.892Z,12.24
2018-03-30T17:13:36.429Z,12.05
2018-03-30T17:16:03.923Z,11.76
2018-03-30T17:18:31.444Z,11.45
2018-03-30T17:20:59.125Z,11.20
2018-03-30T17:23:27.450Z,11.06
2018-03-30T17:25:54.973Z,10.82
2018-03-30T17:28:23.227Z,10.49
2018-03-30T17:30:50.752Z,10.36
2018-03-30T17:33:18.266Z,10.13
2018-03-30T17:35:45.763Z,10.10
2018-03-30T17:38:13.212Z,9.80
2018-03-30T17:40:42.494Z,10.05
2018-03-30T17:43:09.952Z,9.69
2018-03-30T17:45:37.395Z,9.57
2018-03-30T17:48:04.860Z,10.15
2018-03-30T17:50:32.312Z,10.01
2018-03-30T17:52:59.791Z,10.10
2018-03-30T17:55:27.284Z,9.58
2018-03-30T17:57:54.720Z,9.50
2018-03-30T18:00:22.163Z,9.21
2018-03-30T18:02:49.611Z,8.88
2018-03-30T18:05:17.076Z,8.61
2018-03-30T18:07:44.519Z,8.33
2018-03-30T18:10:11.975Z,8.17
2018-03-30T18:12:39.457Z,8.09
2018-03-30T18:15:06.915Z,7.96
2018-03-30T18:17:34.576Z,7.85
2018-03-30T18:20:02.031Z,8.19
2018-03-30T18:22:29.506Z,8.06
2018-03-30T18:24:56.948Z,7.69
2018-03-30T18:27:24.438Z,7.73
2018-03-30T18:29:51.888Z,8.04
2018-03-30T18:32:19.340Z,7.81
2018-03-30T18:34:46.794Z,7.48
2018-03-30T18:37:14.239Z,7.21
2018-03-30T18:39:42.468Z,6.99
2018-03-30T18:42:09.916Z,6.81
2018-03-30T18:44:38.309Z,6.77
2018-03-30T18:47:05.761Z,6.99
2018-03-30T18:49:33.237Z,6.99
2018-03-30T18:52:00.694Z,6.67
2018-03-30T18:54:28.142Z,6.44
2018-03-30T18:56:55.609Z,6.41
2018-03-30T18:59:23.042Z,6.38
2018-03-30T19:01:50.509Z,6.22
2018-03-30T19:04:17.960Z,6.04
2018-03-30T19:06:45.428Z,5.97
2018-03-30T19:09:13.644Z,5.91
2018-03-30T19:11:42.138Z,5.81
2018-03-30T19:14:09.596Z,5.77
2018-03-30T19:16:37.076Z,6.17
2018-03-30T19:19:04.520Z,5.75
2018-03-30T19:21:31.988Z,5.68
2018-03-30T19:23:59.465Z,5.45
2018-03-30T19:26:26.927Z,5.45
2018-03-30T19:28:54.388Z,5.44
2018-03-30T19:31:21.831Z,5.26
2018-03-30T19:33:49.296Z,5.55
2018-03-30T19:36:16.743Z,5.44
2018-03-30T19:38:45.053Z,5.18
2018-03-30T19:41:12.504Z,5.21
2018-03-30T19:43:39.962Z,5.10
2018-03-30T19:46:07.424Z,4.94
2018-03-30T19:48:34.865Z,4.84
2018-03-30T19:51:02.325Z,4.76
2018-03-30T19:53:29.797Z,4.72
2018-03-30T19:55:57.240Z,4.64
2018-03-30T19:58:24.703Z,4.94
2018-03-30T20:00:52.149Z,5.02
2018-03-30T20:03:19.632Z,4.66
2018-03-30T20:05:47.088Z,4.62
2018-03-30T20:08:14.543Z,4.97
2018-03-30T20:10:42.011Z,4.86
2018-03-30T20:13:09.475Z,5.22
2018-03-30T20:15:36.986Z,5.02
2018-03-30T20:18:04.391Z,4.84
2018-03-30T20:20:31.840Z,4.72
2018-03-30T20:23:00.081Z,4.50
2018-03-30T20:25:27.524Z,4.41
2018-03-30T20:27:54.968Z,4.37
2018-03-30T20:30:22.428Z,4.56
2018-03-30T20:32:49.880Z,4.91
2018-03-30T20:35:17.346Z,4.94
2018-03-30T20:37:44.817Z,5.20
2018-03-30T20:40:12.264Z,5.11
2018-03-30T20:42:39.736Z,5.24
2018-03-30T20:45:07.177Z,5.27
2018-03-30T20:47:34.628Z,5.13
2018-03-30T20:50:02.844Z,5.19
2018-03-30T20:52:30.297Z,5.45
2018-03-30T20:54:57.752Z,5.68
2018-03-30T20:57:25.201Z,6.18
2018-03-30T20:59:53.432Z,6.20
2018-03-30T21:02:20.880Z,6.24
2018-03-30T21:04:48.327Z,6.79
2018-03-30T21:07:15.784Z,6.98
2018-03-30T21:09:43.251Z,7.44
2018-03-30T21:12:10.709Z,7.43
2018-03-30T21:14:38.176Z,7.38
2018-03-30T21:17:05.640Z,7.27
2018-03-30T21:19:33.087Z,7.31
2018-03-30T21:22:00.565Z,7.32
2018-03-30T21:24:28.013Z,7.14
2018-03-30T21:26:55.460Z,7.15
2018-03-30T21:29:23.684Z,6.99
2018-03-30T21:31:51.146Z,6.96
2018-03-30T21:34:18.588Z,7.06
2018-03-30T21:36:46.056Z,6.87
2018-03-30T21:39:14.593Z,6.88
2018-03-30T21:41:42.048Z,6.90
2018-03-30T21:44:09.495Z,7.04
2018-03-30T21:46:36.951Z,7.09
2018-03-30T21:49:04.408Z,7.05
2018-03-30T21:51:31.875Z,7.19
2018-03-30T21:53:59.332Z,7.57
2018-03-30T21:56:26.775Z,7.59
2018-03-30T21:58:54.227Z,7.29
2018-03-30T22:01:21.690Z,7.18
2018-03-30T22:03:49.144Z,7.19
2018-03-30T22:06:16.604Z,7.30
2018-03-30T22:08:44.329Z,7.27
2018-03-30T22:11:11.775Z,7.21
2018-03-30T22:13:39.223Z,7.27
2018-03-30T22:16:06.685Z,7.22
2018-03-30T22:18:34.152Z,7.22
2018-03-30T22:21:01.604Z,7.46
2018-03-30T22:23:29.072Z,7.47
2018-03-30T22:25:56.519Z,7.43
2018-03-30T22:28:23.960Z,7.32
2018-03-30T22:30:51.428Z,7.33
2018-03-30T22:33:18.879Z,7.20
2018-03-30T22:35:47.118Z,7.19
2018-03-30T22:38:14.562Z,7.07
2018-03-30T22:40:42.016Z,7.02
2018-03-30T22:43:09.482Z,7.16
2018-03-30T22:45:36.929Z,7.01
2018-03-30T22:48:04.387Z,6.95
2018-03-30T22:50:31.849Z,6.99
2018-03-30T22:52:59.287Z,6.83
2018-03-30T22:55:27.524Z,6.74
2018-03-30T22:57:54.972Z,6.76
2018-03-30T23:00:22.439Z,6.76
2018-03-30T23:02:49.901Z,6.63
2018-03-30T23:05:17.343Z,6.66
2018-03-30T23:07:44.803Z,6.81
2018-03-30T23:10:12.266Z,6.66
2018-03-30T23:12:39.732Z,6.58
2018-03-30T23:15:07.180Z,6.42
2018-03-30T23:17:34.642Z,6.37
2018-03-30T23:20:02.087Z,6.14
2018-03-30T23:22:30.320Z,6.03
2018-03-30T23:24:57.768Z,5.93
2018-03-30T23:27:25.213Z,5.88
2018-03-30T23:29:52.672Z,5.78
2018-03-30T23:32:20.124Z,5.79
2018-03-30T23:34:47.594Z,5.84
2018-03-30T23:37:15.051Z,5.49
2018-03-30T23:39:42.500Z,5.36
2018-03-30T23:42:10.710Z,5.28
2018-03-30T23:44:38.165Z,5.20
2018-03-30T23:47:05.625Z,5.31
2018-03-30T23:49:33.071Z,5.33
2018-03-30T23:52:01.292Z,5.46
2018-03-30T23:54:28.763Z,5.50
2018-03-30T23:56:56.209Z,5.56
2018-03-30T23:59:23.670Z,5.71
